createdAt,value
2022-12-16T00:00:01.644Z,67.66
2022-12-16T00:03:07.200Z,67.59
2022-12-16T00:06:10.699Z,67.54
2022-12-16T00:09:14.702Z,67.44
2022-12-16T00:12:17.468Z,67.65
2022-12-16T00:15:21.464Z,66.49
2022-12-16T00:18:28.222Z,66.85
2022-12-16T00:21:30.911Z,67.25
2022-12-16T00:24:34.974Z,66.86
2022-12-16T00:27:37.699Z,67.30
2022-12-16T00:30:42.200Z,66.49
2022-12-16T00:33:47.562Z,66.53
2022-12-16T00:36:50.233Z,66.96
2022-12-16T00:39:54.607Z,67.18
2022-12-16T00:42:57.826Z,66.51
2022-12-16T00:46:01.869Z,67.15
2022-12-16T00:49:07.559Z,66.34
2022-12-16T00:52:10.226Z,66.13
2022-12-16T00:55:14.374Z,66.52
2022-12-16T00:58:17.260Z,67.44
2022-12-16T01:01:21.750Z,66.44
2022-12-16T01:04:27.887Z,66.32
2022-12-16T01:07:30.572Z,65.85
2022-12-16T01:10:34.699Z,66.74
2022-12-16T01:13:37.430Z,67.21
2022-12-16T01:16:41.412Z,67.23
2022-12-16T01:19:46.752Z,67.56
2022-12-16T01:22:49.435Z,66.63
2022-12-16T01:25:58.353Z,65.80
2022-12-16T01:29:02.297Z,66.38
2022-12-16T01:32:06.341Z,66.19
2022-12-16T01:35:43.923Z,65.99
2022-12-16T01:38:35.341Z,65.81
2022-12-16T01:41:39.424Z,65.81
2022-12-16T01:44:45.665Z,66.54
2022-12-16T01:47:48.381Z,67.01
2022-12-16T01:51:00.623Z,66.23
2022-12-16T01:54:07.805Z,67.19
2022-12-16T01:57:15.910Z,66.87
2022-12-16T02:00:20.128Z,66.19
2022-12-16T02:03:23.347Z,66.65
2022-12-16T02:06:28.827Z,66.60
2022-12-16T02:09:32.835Z,65.80
2022-12-16T02:12:47.577Z,66.10
2022-12-16T02:16:00.454Z,66.71
2022-12-16T02:19:17.978Z,67.52
2022-12-16T02:22:34.541Z,66.34
2022-12-16T02:26:05.770Z,66.46
2022-12-16T02:29:47.884Z,65.85
2022-12-16T02:33:09.742Z,65.80
2022-12-16T02:36:20.586Z,66.14
2022-12-16T02:39:28.081Z,65.53
2022-12-16T02:42:32.342Z,66.22
2022-12-16T02:45:38.092Z,65.50
2022-12-16T02:48:42.228Z,65.84
2022-12-16T02:51:47.046Z,66.25
2022-12-16T02:54:54.318Z,66.28
2022-12-16T02:58:07.802Z,66.10
2022-12-16T03:01:19.842Z,66.53
2022-12-16T03:04:32.854Z,65.69
2022-12-16T03:07:40.815Z,65.41
2022-12-16T03:10:48.424Z,65.27
2022-12-16T03:13:53.974Z,65.50
2022-12-16T03:16:58.911Z,65.97
2022-12-16T03:20:12.593Z,65.75
2022-12-16T03:23:19.871Z,64.73
2022-12-16T03:26:27.888Z,65.81
2022-12-16T03:29:41.250Z,65.81
2022-12-16T03:32:53.319Z,65.19
2022-12-16T03:36:03.111Z,66.14
2022-12-16T03:39:09.729Z,66.51
2022-12-16T03:42:15.031Z,66.77
2022-12-16T03:45:23.501Z,65.91
2022-12-16T03:48:28.257Z,66.29
2022-12-16T03:51:32.302Z,65.35
2022-12-16T03:54:36.253Z,65.57
2022-12-16T03:57:40.275Z,65.36
2022-12-16T04:00:43.104Z,65.86
2022-12-16T04:03:45.893Z,65.06
2022-12-16T04:07:10.901Z,65.51
2022-12-16T04:10:14.908Z,65.04
2022-12-16T04:13:33.002Z,66.55
2022-12-16T04:16:53.712Z,65.40
2022-12-16T04:24:05.214Z,64.40
2022-12-16T04:27:28.667Z,64.94
2022-12-16T04:30:36.353Z,65.73
2022-12-16T04:33:57.150Z,65.22
2022-12-16T04:37:20.254Z,65.50
2022-12-16T04:40:41.038Z,65.25
2022-12-16T04:44:01.307Z,65.66
2022-12-16T04:47:22.985Z,65.61
2022-12-16T04:50:48.754Z,65.82
2022-12-16T04:54:10.275Z,66.37
2022-12-16T04:57:33.115Z,65.54
2022-12-16T05:00:55.016Z,66.16
2022-12-16T05:04:16.944Z,65.28
2022-12-16T05:07:38.778Z,65.35
2022-12-16T05:11:00.148Z,64.73
2022-12-16T05:14:21.628Z,65.25
2022-12-16T05:17:42.998Z,65.59
2022-12-16T05:21:04.530Z,65.54
2022-12-16T05:24:24.811Z,65.93
2022-12-16T05:27:46.065Z,64.84
2022-12-16T05:31:07.951Z,65.28
2022-12-16T05:34:29.640Z,64.92
2022-12-16T05:37:51.213Z,65.73
2022-12-16T05:41:11.463Z,64.72
2022-12-16T05:44:33.019Z,65.16
2022-12-16T05:47:55.592Z,66.17
2022-12-16T05:51:15.755Z,65.70
2022-12-16T05:54:37.359Z,65.23
2022-12-16T05:57:58.950Z,64.86
2022-12-16T06:01:19.160Z,65.31
2022-12-16T06:04:42.114Z,65.10
2022-12-16T06:08:09.598Z,64.83
2022-12-16T06:15:10.772Z,64.37
2022-12-16T06:18:31.074Z,65.39
2022-12-16T06:21:54.089Z,65.38
2022-12-16T06:25:15.481Z,65.19
2022-12-16T06:28:35.708Z,64.04
2022-12-16T06:31:57.249Z,64.77
2022-12-16T06:35:18.876Z,65.55
2022-12-16T06:38:40.434Z,64.87
2022-12-16T06:42:02.106Z,66.28
2022-12-16T06:45:23.898Z,65.58
2022-12-16T06:48:44.159Z,65.10
2022-12-16T06:52:05.787Z,65.02
2022-12-16T06:55:27.287Z,65.28
2022-12-16T06:58:48.706Z,65.45
2022-12-16T07:02:10.226Z,65.63
2022-12-16T07:05:35.770Z,66.09
2022-12-16T07:12:37.409Z,65.46
2022-12-16T07:16:00.001Z,65.32
2022-12-16T07:19:21.525Z,65.11
2022-12-16T07:22:42.905Z,65.09
2022-12-16T07:26:03.178Z,64.82
2022-12-16T07:33:05.044Z,64.84
2022-12-16T07:36:22.070Z,65.13
2022-12-16T07:39:43.703Z,64.25
2022-12-16T07:43:06.980Z,64.09
2022-12-16T07:46:29.938Z,64.97
2022-12-16T07:49:51.373Z,65.32
2022-12-16T07:53:15.847Z,65.68
2022-12-16T07:56:37.269Z,65.27
2022-12-16T07:59:58.782Z,64.89
2022-12-16T08:03:20.109Z,65.59
2022-12-16T08:06:41.697Z,64.88
2022-12-16T08:10:02.036Z,65.54
2022-12-16T08:13:26.156Z,66.07
2022-12-16T08:16:47.711Z,65.47
2022-12-16T08:20:09.169Z,66.23
2022-12-16T08:23:31.072Z,65.56
2022-12-16T08:30:31.279Z,66.11
2022-12-16T08:33:52.583Z,65.35
2022-12-16T08:37:15.354Z,65.76
2022-12-16T08:40:36.543Z,65.48
2022-12-16T08:43:58.648Z,65.99
2022-12-16T08:47:20.262Z,66.64
2022-12-16T08:50:40.464Z,66.56
2022-12-16T08:54:03.349Z,67.85
2022-12-16T08:57:23.749Z,67.51
2022-12-16T09:04:24.133Z,66.39
2022-12-16T09:07:44.337Z,66.68
2022-12-16T09:14:46.272Z,66.25
2022-12-16T09:18:18.341Z,66.94
2022-12-16T09:21:51.386Z,66.43
2022-12-16T09:25:13.185Z,66.23
2022-12-16T09:28:34.857Z,66.11
2022-12-16T09:31:56.362Z,65.87
2022-12-16T09:35:32.300Z,66.67
2022-12-16T09:38:52.148Z,66.39
2022-12-16T09:42:23.241Z,67.84
2022-12-16T09:45:56.542Z,66.92
2022-12-16T09:49:24.917Z,67.19
2022-12-16T09:52:47.974Z,67.74
2022-12-16T09:56:07.982Z,66.91
2022-12-16T09:59:33.144Z,66.44
2022-12-16T10:06:48.353Z,67.85
2022-12-16T10:10:17.093Z,66.91
2022-12-16T10:13:47.431Z,66.95
2022-12-16T10:17:15.401Z,67.49
2022-12-16T10:20:49.772Z,66.32
2022-12-16T10:24:20.400Z,66.20
2022-12-16T10:27:50.709Z,68.10
2022-12-16T10:31:12.810Z,65.60
2022-12-16T10:34:36.631Z,67.45
2022-12-16T10:38:01.316Z,66.60
2022-12-16T10:45:11.607Z,68.60
2022-12-16T10:48:33.889Z,67.93
2022-12-16T10:51:55.722Z,67.33
2022-12-16T10:55:33.802Z,67.76
2022-12-16T10:59:02.519Z,68.43
2022-12-16T11:02:36.890Z,67.33
2022-12-16T11:05:57.048Z,67.60
2022-12-16T11:09:35.112Z,67.78
2022-12-16T11:13:09.117Z,67.76
2022-12-16T11:16:32.858Z,67.25
2022-12-16T11:19:54.290Z,67.15
2022-12-16T11:23:36.569Z,66.83
2022-12-16T11:27:12.724Z,67.25
2022-12-16T11:30:40.927Z,67.06
2022-12-16T11:34:03.186Z,66.88
2022-12-16T11:37:24.515Z,68.20
2022-12-16T11:44:26.734Z,67.10
2022-12-16T11:51:37.141Z,67.87
2022-12-16T11:55:04.971Z,68.50
2022-12-16T12:06:04.515Z,67.65
2022-12-16T12:13:19.051Z,67.77
2022-12-16T12:16:46.866Z,68.71
2022-12-16T12:20:22.371Z,67.79
2022-12-16T12:23:53.999Z,67.97
2022-12-16T12:27:25.531Z,67.59
2022-12-16T12:30:47.162Z,66.83
2022-12-16T12:34:19.085Z,67.06
2022-12-16T12:37:47.242Z,67.24
2022-12-16T12:41:17.792Z,67.35
2022-12-16T12:44:48.994Z,67.62
2022-12-16T12:48:20.791Z,68.60
2022-12-16T12:51:49.148Z,67.94
2022-12-16T12:55:18.558Z,67.58
2022-12-16T13:02:23.276Z,67.80
2022-12-16T13:05:47.602Z,67.29
2022-12-16T13:09:16.304Z,66.95
2022-12-16T13:12:47.264Z,66.48
2022-12-16T13:16:10.117Z,66.96
2022-12-16T13:19:59.025Z,67.79
2022-12-16T13:23:49.315Z,67.71
2022-12-16T13:27:21.258Z,68.20
2022-12-16T13:30:42.964Z,68.17
2022-12-16T13:34:10.770Z,68.33
2022-12-16T13:37:45.098Z,68.30
2022-12-16T13:41:12.489Z,68.55
2022-12-16T13:45:08.850Z,67.54
2022-12-16T13:48:47.567Z,66.98
2022-12-16T13:52:20.608Z,67.96
2022-12-16T13:55:47.751Z,68.35
2022-12-16T13:59:11.938Z,68.54
2022-12-16T14:02:50.808Z,67.84
2022-12-16T14:06:14.712Z,67.60
2022-12-16T14:09:48.296Z,68.17
2022-12-16T14:13:18.057Z,68.46
2022-12-16T14:16:49.681Z,68.23
2022-12-16T14:20:20.582Z,68.96
2022-12-16T14:23:58.190Z,68.49
2022-12-16T14:27:36.633Z,69.87
2022-12-16T14:30:57.834Z,69.09
2022-12-16T14:37:59.948Z,68.91
2022-12-16T14:41:21.558Z,69.10
2022-12-16T14:44:44.296Z,68.77
2022-12-16T14:48:05.774Z,69.62
2022-12-16T14:51:47.782Z,68.83
2022-12-16T14:55:08.082Z,67.86
2022-12-16T14:58:32.219Z,68.24
2022-12-16T15:01:55.699Z,68.42
2022-12-16T15:05:16.900Z,68.16
2022-12-16T15:08:50.445Z,68.65
2022-12-16T15:12:14.179Z,68.57
2022-12-16T15:15:45.436Z,68.49
2022-12-16T15:19:17.256Z,68.70
2022-12-16T15:22:37.509Z,69.14
2022-12-16T15:26:04.073Z,68.89
2022-12-16T15:29:39.401Z,68.28
2022-12-16T15:33:01.950Z,68.76
2022-12-16T15:36:25.583Z,70.01
2022-12-16T15:39:50.300Z,69.43
2022-12-16T15:43:12.279Z,68.86
2022-12-16T15:46:37.577Z,69.14
2022-12-16T15:50:04.026Z,69.18
2022-12-16T15:53:57.309Z,68.81
2022-12-16T15:57:17.470Z,69.83
2022-12-16T16:00:43.399Z,69.42
2022-12-16T16:04:08.313Z,69.13
2022-12-16T16:07:35.684Z,69.51
2022-12-16T16:11:00.777Z,69.27
2022-12-16T16:14:41.909Z,70.26
2022-12-16T16:18:02.439Z,69.33
2022-12-16T16:21:23.785Z,70.06
2022-12-16T16:24:45.390Z,69.76
2022-12-16T16:28:08.333Z,69.69
2022-12-16T16:31:29.221Z,69.13
2022-12-16T16:34:51.168Z,69.69
2022-12-16T16:38:24.037Z,69.98
2022-12-16T16:41:44.323Z,69.85
2022-12-16T16:48:48.015Z,69.83
2022-12-16T16:52:08.318Z,70.29
2022-12-16T16:59:13.793Z,70.05
2022-12-16T17:02:41.167Z,70.20
2022-12-16T17:06:03.168Z,69.77
2022-12-16T17:09:23.453Z,70.14
2022-12-16T17:12:46.496Z,70.63
2022-12-16T17:16:06.923Z,71.26
2022-12-16T17:19:39.866Z,70.38
2022-12-16T17:23:00.540Z,70.02
2022-12-16T17:26:20.800Z,69.58
2022-12-16T17:29:43.013Z,69.78
2022-12-16T17:33:04.495Z,69.89
2022-12-16T17:36:31.901Z,69.58
2022-12-16T17:39:52.665Z,69.37
2022-12-16T17:43:12.926Z,69.01
2022-12-16T17:46:34.589Z,69.81
2022-12-16T17:49:56.202Z,69.68
2022-12-16T17:53:18.138Z,69.83
2022-12-16T17:56:39.710Z,69.71
2022-12-16T17:59:59.993Z,69.77
2022-12-16T18:03:21.687Z,69.66
2022-12-16T18:06:42.087Z,70.10
2022-12-16T18:10:09.874Z,70.36
2022-12-16T18:13:31.668Z,70.40
2022-12-16T18:16:51.868Z,70.89
2022-12-16T18:20:12.269Z,70.25
2022-12-16T18:23:33.468Z,70.42
2022-12-16T18:27:06.824Z,70.82
2022-12-16T18:30:28.511Z,69.97
2022-12-16T18:37:31.042Z,70.76
2022-12-16T18:40:52.284Z,70.70
2022-12-16T18:44:14.998Z,70.88
2022-12-16T18:47:36.265Z,70.97
2022-12-16T18:50:57.734Z,71.13
2022-12-16T18:54:32.451Z,71.27
2022-12-16T18:57:53.901Z,70.74
2022-12-16T19:01:20.486Z,70.38
2022-12-16T19:04:40.600Z,70.35
2022-12-16T19:08:00.885Z,70.90
2022-12-16T19:11:22.392Z,70.69
2022-12-16T19:14:42.474Z,70.86
2022-12-16T19:18:04.237Z,70.91
2022-12-16T19:21:24.556Z,69.92
2022-12-16T19:24:46.094Z,71.38
2022-12-16T19:28:06.398Z,70.42
2022-12-16T19:31:32.379Z,71.13
2022-12-16T19:34:54.039Z,70.86
2022-12-16T19:38:14.688Z,71.31
2022-12-16T19:41:36.734Z,72.81
2022-12-16T19:44:58.381Z,72.73
2022-12-16T19:48:19.724Z,71.98
2022-12-16T19:51:42.409Z,72.01
2022-12-16T19:55:03.797Z,68.15
2022-12-16T20:02:02.182Z,69.86
2022-12-16T20:05:24.198Z,70.73
2022-12-16T20:08:47.091Z,69.85
2022-12-16T20:12:07.324Z,71.15
2022-12-16T20:15:29.368Z,71.33
2022-12-16T20:19:06.340Z,71.48
2022-12-16T20:22:26.685Z,71.81
2022-12-16T20:25:49.584Z,71.90
2022-12-16T20:29:11.032Z,72.20
2022-12-16T20:32:33.114Z,72.31
2022-12-16T20:35:53.322Z,72.03
2022-12-16T20:42:58.009Z,71.87
2022-12-16T20:46:19.506Z,72.52
2022-12-16T20:49:39.737Z,72.56
2022-12-16T20:53:01.363Z,72.73
2022-12-16T20:56:22.910Z,72.21
2022-12-16T20:59:44.445Z,72.30
2022-12-16T21:03:06.020Z,72.58
2022-12-16T21:06:26.610Z,72.42
2022-12-16T21:09:48.040Z,72.40
2022-12-16T21:13:08.181Z,72.35
2022-12-16T21:16:30.932Z,72.67
2022-12-16T21:19:52.338Z,72.70
2022-12-16T21:23:19.535Z,73.55
2022-12-16T21:26:39.880Z,73.13
2022-12-16T21:30:01.351Z,72.73
2022-12-16T21:33:23.052Z,72.83
2022-12-16T21:36:43.489Z,73.14
2022-12-16T21:40:05.001Z,72.75
2022-12-16T21:43:25.280Z,72.57
2022-12-16T21:46:46.745Z,72.20
2022-12-16T21:50:09.520Z,72.58
2022-12-16T21:53:29.562Z,72.29
2022-12-16T21:56:51.286Z,73.43
2022-12-16T22:00:24.644Z,73.57
2022-12-16T22:03:44.917Z,73.31
2022-12-16T22:10:46.933Z,73.87
2022-12-16T22:14:07.195Z,73.20
2022-12-16T22:17:28.422Z,72.36
2022-12-16T22:20:48.656Z,73.46
2022-12-16T22:24:11.827Z,73.32
2022-12-16T22:27:33.338Z,73.48
2022-12-16T22:30:53.641Z,73.96
2022-12-16T22:34:17.562Z,73.87
2022-12-16T22:37:39.058Z,74.19
2022-12-16T22:41:00.807Z,73.86
2022-12-16T22:44:22.420Z,73.37
2022-12-16T22:47:42.470Z,73.77
2022-12-16T22:51:03.718Z,73.51
2022-12-16T22:54:25.049Z,73.68
2022-12-16T22:57:47.487Z,73.12
2022-12-16T23:01:09.079Z,72.24
2022-12-16T23:04:30.287Z,73.79
2022-12-16T23:07:51.869Z,73.20
2022-12-16T23:11:14.564Z,74.13
2022-12-16T23:18:17.681Z,74.04
2022-12-16T23:21:39.730Z,73.97
2022-12-16T23:25:01.260Z,74.24
2022-12-16T23:28:21.632Z,74.17
2022-12-16T23:31:43.273Z,74.22
2022-12-16T23:35:04.773Z,74.66
2022-12-16T23:38:25.451Z,74.30
2022-12-16T23:41:46.999Z,74.01
2022-12-16T23:48:47.786Z,74.21
2022-12-16T23:52:09.230Z,74.38
2022-12-16T23:55:30.109Z,74.21
2022-12-16T23:58:51.923Z,74.46
